createdAt,value
2022-07-29T00:01:19.503Z,25.76
2022-07-29T00:04:21.862Z,25.50
2022-07-29T00:07:23.561Z,25.40
2022-07-29T00:10:24.972Z,25.30
2022-07-29T00:13:32.479Z,25.34
2022-07-29T00:16:34.640Z,24.99
2022-07-29T00:19:36.142Z,24.71
2022-07-29T00:22:40.516Z,24.42
2022-07-29T00:25:42.091Z,24.54
2022-07-29T00:28:43.612Z,24.46
2022-07-29T00:31:45.190Z,24.09
2022-07-29T00:35:05.333Z,24.31
2022-07-29T00:38:07.080Z,24.24
2022-07-29T00:41:08.527Z,24.13
2022-07-29T00:44:09.968Z,23.99
2022-07-29T00:47:13.028Z,23.83
2022-07-29T00:50:15.019Z,23.71
2022-07-29T00:53:16.623Z,23.50
2022-07-29T00:56:18.119Z,23.55
2022-07-29T00:59:19.634Z,23.58
2022-07-29T01:02:21.097Z,23.53
2022-07-29T01:05:25.573Z,23.58
2022-07-29T01:08:48.696Z,23.35
2022-07-29T01:11:51.118Z,22.95
2022-07-29T01:14:54.246Z,23.18
2022-07-29T01:18:12.042Z,22.79
2022-07-29T01:21:28.983Z,23.02
2022-07-29T01:24:44.735Z,23.15
2022-07-29T01:28:01.992Z,23.06
2022-07-29T01:31:05.654Z,23.12
2022-07-29T01:34:12.401Z,22.81
2022-07-29T01:37:24.800Z,22.92
2022-07-29T01:40:37.216Z,22.80
2022-07-29T01:43:49.754Z,22.99
2022-07-29T01:46:57.084Z,22.77
2022-07-29T01:50:00.682Z,22.82
2022-07-29T01:53:05.867Z,22.73
2022-07-29T01:56:11.189Z,23.07
2022-07-29T01:59:12.702Z,23.41
2022-07-29T02:02:17.535Z,23.29
2022-07-29T02:05:21.346Z,23.15
2022-07-29T02:08:24.295Z,23.17
2022-07-29T02:11:26.048Z,23.15
2022-07-29T02:14:29.621Z,22.86
2022-07-29T02:17:40.928Z,23.16
2022-07-29T02:20:46.680Z,23.21
2022-07-29T02:23:51.391Z,23.41
2022-07-29T02:26:57.432Z,23.48
2022-07-29T02:30:01.457Z,23.56
2022-07-29T02:33:04.507Z,23.70
2022-07-29T02:36:06.314Z,24.10
2022-07-29T02:39:10.829Z,24.29
2022-07-29T02:42:16.099Z,24.42
2022-07-29T02:45:18.039Z,24.57
2022-07-29T02:48:23.497Z,24.72
2022-07-29T02:52:01.232Z,24.42
2022-07-29T02:55:11.717Z,24.51
2022-07-29T02:58:29.736Z,24.34
2022-07-29T03:01:34.852Z,24.23
2022-07-29T03:04:39.623Z,23.76
2022-07-29T03:07:44.090Z,24.05
2022-07-29T03:10:47.997Z,24.02
2022-07-29T03:13:49.828Z,23.97
2022-07-29T03:16:52.196Z,23.62
2022-07-29T03:19:54.176Z,23.90
2022-07-29T03:22:55.843Z,23.79
2022-07-29T03:25:57.776Z,23.71
2022-07-29T03:28:59.353Z,23.25
2022-07-29T03:32:07.147Z,23.53
2022-07-29T03:35:09.387Z,23.62
2022-07-29T03:38:10.940Z,23.92
2022-07-29T03:41:15.403Z,23.72
2022-07-29T03:44:18.853Z,23.88
2022-07-29T03:47:47.986Z,24.14
2022-07-29T03:50:46.945Z,23.93
2022-07-29T03:53:48.489Z,23.91
2022-07-29T03:56:53.405Z,23.87
2022-07-29T03:59:56.099Z,24.03
2022-07-29T04:02:58.209Z,23.80
2022-07-29T04:06:06.765Z,23.91
2022-07-29T04:09:09.857Z,24.03
2022-07-29T04:12:11.658Z,24.12
2022-07-29T04:15:13.261Z,23.51
2022-07-29T04:18:14.702Z,23.93
2022-07-29T04:21:16.263Z,24.03
2022-07-29T04:24:18.746Z,23.97
2022-07-29T04:27:20.571Z,23.84
2022-07-29T04:30:22.615Z,23.97
2022-07-29T04:33:24.937Z,23.99
2022-07-29T04:36:28.884Z,24.08
2022-07-29T04:39:31.458Z,23.82
2022-07-29T04:42:32.869Z,23.83
2022-07-29T04:45:34.411Z,24.12
2022-07-29T04:48:36.134Z,24.01
2022-07-29T04:51:37.734Z,23.94
2022-07-29T04:54:39.181Z,24.05
2022-07-29T04:57:40.740Z,24.14
2022-07-29T05:00:42.405Z,23.89
2022-07-29T05:03:44.117Z,23.84
2022-07-29T05:06:45.591Z,23.93
2022-07-29T05:09:47.030Z,24.16
2022-07-29T05:12:48.690Z,24.07
2022-07-29T05:15:50.686Z,24.07
2022-07-29T05:18:52.154Z,23.91
2022-07-29T05:21:53.687Z,24.16
2022-07-29T05:24:55.156Z,24.36
2022-07-29T05:27:57.202Z,24.05
2022-07-29T05:30:58.650Z,24.15
2022-07-29T05:34:00.521Z,24.27
2022-07-29T05:37:02.027Z,24.20
2022-07-29T05:40:04.339Z,24.02
2022-07-29T05:43:05.990Z,24.42
2022-07-29T05:46:07.512Z,24.07
2022-07-29T05:49:09.422Z,24.35
2022-07-29T05:52:11.450Z,24.15
2022-07-29T05:55:12.987Z,24.01
2022-07-29T05:58:14.651Z,24.18
2022-07-29T06:01:17.025Z,23.98
2022-07-29T06:04:18.808Z,24.14
2022-07-29T06:07:21.067Z,24.15
2022-07-29T06:10:23.948Z,24.23
2022-07-29T06:13:27.851Z,24.02
2022-07-29T06:16:30.405Z,24.09
2022-07-29T06:19:32.103Z,24.53
2022-07-29T06:22:33.584Z,24.04
2022-07-29T06:25:36.767Z,24.55
2022-07-29T06:28:38.546Z,24.64
2022-07-29T06:31:40.392Z,24.16
2022-07-29T06:34:43.381Z,24.60
2022-07-29T06:37:50.439Z,24.81
2022-07-29T06:41:11.083Z,25.12
2022-07-29T06:44:12.665Z,25.50
2022-07-29T06:47:14.830Z,25.24
2022-07-29T06:50:16.420Z,25.25
2022-07-29T06:53:18.316Z,24.84
2022-07-29T06:56:19.886Z,25.06
2022-07-29T06:59:28.339Z,25.30
2022-07-29T07:02:33.758Z,25.51
2022-07-29T07:05:36.346Z,25.58
2022-07-29T07:08:37.829Z,25.64
2022-07-29T07:11:39.402Z,25.47
2022-07-29T07:14:41.915Z,25.77
2022-07-29T07:17:43.679Z,25.56
2022-07-29T07:20:45.533Z,25.69
2022-07-29T07:23:47.362Z,25.58
2022-07-29T07:26:49.234Z,25.68
2022-07-29T07:29:50.774Z,25.53
2022-07-29T07:32:52.245Z,25.75
2022-07-29T07:35:53.742Z,25.70
2022-07-29T07:38:55.289Z,25.72
2022-07-29T07:41:57.097Z,25.64
2022-07-29T07:45:13.052Z,25.85
2022-07-29T07:48:15.651Z,26.03
2022-07-29T07:51:17.113Z,26.24
2022-07-29T07:54:20.882Z,26.41
2022-07-29T07:57:22.613Z,26.38
2022-07-29T08:00:24.531Z,26.22
2022-07-29T08:03:25.973Z,26.14
2022-07-29T08:06:27.455Z,25.91
2022-07-29T08:09:30.792Z,26.07
2022-07-29T08:12:32.418Z,26.16
2022-07-29T08:15:34.414Z,26.20
2022-07-29T08:18:35.873Z,26.41
2022-07-29T08:21:37.509Z,26.39
2022-07-29T08:24:45.140Z,26.47
2022-07-29T08:27:47.456Z,26.50
2022-07-29T08:30:48.939Z,26.58
2022-07-29T08:33:54.108Z,26.47
2022-07-29T08:36:57.025Z,26.70
2022-07-29T08:39:58.453Z,26.79
2022-07-29T08:43:06.539Z,26.70
2022-07-29T08:46:08.228Z,26.65
2022-07-29T08:49:10.151Z,26.80
2022-07-29T08:52:12.642Z,27.03
2022-07-29T08:55:16.536Z,27.22
2022-07-29T08:58:24.665Z,27.37
2022-07-29T09:01:35.852Z,27.09
2022-07-29T09:04:38.642Z,26.95
2022-07-29T09:07:40.852Z,26.99
2022-07-29T09:10:42.833Z,27.27
2022-07-29T09:13:44.319Z,27.09
2022-07-29T09:17:04.819Z,26.97
2022-07-29T09:20:15.208Z,27.26
2022-07-29T09:23:23.203Z,27.49
2022-07-29T09:26:30.009Z,27.59
2022-07-29T09:29:36.109Z,27.46
2022-07-29T09:32:58.207Z,27.21
2022-07-29T09:36:07.974Z,27.38
2022-07-29T09:39:09.625Z,27.33
2022-07-29T09:42:11.436Z,27.69
2022-07-29T09:45:26.551Z,28.06
2022-07-29T09:48:28.006Z,27.87
2022-07-29T09:51:38.166Z,27.70
2022-07-29T09:54:40.175Z,27.94
2022-07-29T09:57:41.673Z,28.29
2022-07-29T10:00:46.610Z,28.02
2022-07-29T10:03:53.245Z,27.88
2022-07-29T10:07:04.756Z,28.15
2022-07-29T10:10:07.006Z,28.63
2022-07-29T10:13:15.453Z,29.02
2022-07-29T10:16:18.795Z,28.52
2022-07-29T10:19:21.042Z,28.95
2022-07-29T10:22:51.492Z,28.88
2022-07-29T10:25:46.787Z,29.01
2022-07-29T10:28:48.181Z,29.10
2022-07-29T10:32:09.847Z,28.49
2022-07-29T10:35:29.658Z,29.07
2022-07-29T10:38:52.146Z,29.21
2022-07-29T10:42:20.012Z,29.22
2022-07-29T10:45:22.256Z,29.42
2022-07-29T10:48:24.815Z,29.27
2022-07-29T10:51:26.357Z,29.25
2022-07-29T10:54:47.145Z,29.61
2022-07-29T10:58:13.024Z,29.39
2022-07-29T11:01:37.740Z,29.82
2022-07-29T11:04:47.166Z,29.68
2022-07-29T11:08:20.173Z,29.54
2022-07-29T11:11:29.864Z,29.66
2022-07-29T11:14:53.298Z,29.91
2022-07-29T11:17:59.487Z,30.14
2022-07-29T11:21:02.066Z,29.71
2022-07-29T11:24:34.981Z,30.40
2022-07-29T11:27:40.518Z,30.26
2022-07-29T11:30:56.094Z,30.20
2022-07-29T11:33:58.600Z,29.96
2022-07-29T11:37:14.805Z,30.25
2022-07-29T11:40:17.398Z,30.24
2022-07-29T11:43:54.882Z,29.79
2022-07-29T11:46:56.765Z,30.67
2022-07-29T11:50:01.367Z,30.59
2022-07-29T11:53:13.163Z,30.46
2022-07-29T11:56:18.818Z,30.25
2022-07-29T11:59:21.056Z,30.67
2022-07-29T12:02:38.412Z,30.02
2022-07-29T12:05:51.838Z,30.07
2022-07-29T12:08:53.570Z,30.06
2022-07-29T12:12:04.957Z,30.23
2022-07-29T12:15:20.929Z,30.68
2022-07-29T12:18:24.299Z,30.23
2022-07-29T12:21:26.696Z,30.39
2022-07-29T12:24:45.271Z,31.02
2022-07-29T12:27:46.888Z,31.01
2022-07-29T12:30:51.739Z,30.98
2022-07-29T12:33:54.610Z,30.79
2022-07-29T12:36:56.600Z,31.91
2022-07-29T12:39:58.376Z,31.63
2022-07-29T12:43:12.099Z,30.59
2022-07-29T12:46:15.867Z,30.94
2022-07-29T12:49:24.083Z,31.49
2022-07-29T12:52:33.762Z,31.09
2022-07-29T12:55:49.891Z,31.81
2022-07-29T12:58:51.612Z,31.83
2022-07-29T13:01:53.430Z,31.61
2022-07-29T13:04:59.646Z,31.43
2022-07-29T13:08:22.016Z,31.55
2022-07-29T13:11:35.538Z,32.09
2022-07-29T13:14:41.135Z,31.77
2022-07-29T13:17:44.421Z,32.39
2022-07-29T13:20:50.045Z,32.11
2022-07-29T13:23:51.623Z,32.19
2022-07-29T13:26:53.309Z,31.73
2022-07-29T13:29:58.233Z,32.08
2022-07-29T13:33:01.195Z,31.76
2022-07-29T13:36:02.622Z,31.65
2022-07-29T13:39:04.698Z,31.69
2022-07-29T13:42:10.739Z,32.23
2022-07-29T13:45:12.760Z,31.93
2022-07-29T13:48:14.245Z,32.14
2022-07-29T13:51:15.721Z,32.60
2022-07-29T13:54:17.581Z,32.45
2022-07-29T13:57:19.054Z,32.97
2022-07-29T14:00:20.866Z,32.52
2022-07-29T14:03:22.333Z,32.45
2022-07-29T14:06:23.767Z,32.46
2022-07-29T14:09:25.376Z,32.04
2022-07-29T14:12:26.847Z,31.65
2022-07-29T14:15:28.319Z,31.70
2022-07-29T14:18:29.748Z,32.23
2022-07-29T14:21:31.523Z,31.74
2022-07-29T14:24:37.377Z,32.10
2022-07-29T14:27:39.227Z,32.23
2022-07-29T14:30:40.841Z,32.38
2022-07-29T14:33:42.613Z,32.01
2022-07-29T14:36:47.855Z,32.23
2022-07-29T14:39:49.386Z,31.67
2022-07-29T14:42:50.921Z,31.87
2022-07-29T14:45:54.232Z,31.49
2022-07-29T14:48:58.854Z,31.51
2022-07-29T14:52:00.639Z,31.87
2022-07-29T14:55:03.315Z,31.63
2022-07-29T14:58:10.972Z,31.41
2022-07-29T15:01:13.662Z,31.78
2022-07-29T15:04:15.235Z,31.55
2022-07-29T15:07:16.868Z,32.26
2022-07-29T15:10:18.497Z,31.75
2022-07-29T15:13:20.427Z,31.74
2022-07-29T15:16:21.943Z,32.34
2022-07-29T15:19:23.484Z,31.77
2022-07-29T15:22:24.917Z,32.23
2022-07-29T15:25:28.268Z,31.25
2022-07-29T15:28:29.986Z,31.45
2022-07-29T15:31:31.647Z,31.82
2022-07-29T15:34:33.170Z,31.77
2022-07-29T15:37:48.918Z,31.81
2022-07-29T15:40:51.100Z,31.40
2022-07-29T15:43:52.711Z,31.14
2022-07-29T15:47:09.280Z,31.36
2022-07-29T15:50:15.711Z,31.28
2022-07-29T15:53:17.229Z,31.41
2022-07-29T15:56:19.243Z,31.75
2022-07-29T15:59:22.055Z,31.19
2022-07-29T16:02:24.361Z,31.34
2022-07-29T16:05:29.634Z,31.14
2022-07-29T16:08:31.197Z,30.93
2022-07-29T16:11:32.867Z,30.97
2022-07-29T16:14:34.783Z,31.28
2022-07-29T16:17:36.372Z,31.17
2022-07-29T16:20:38.396Z,31.09
2022-07-29T16:23:40.206Z,31.63
2022-07-29T16:26:41.663Z,31.86
2022-07-29T16:29:43.150Z,31.02
2022-07-29T16:32:44.640Z,30.03
2022-07-29T16:35:46.216Z,30.26
2022-07-29T16:38:48.453Z,30.31
2022-07-29T16:41:49.959Z,30.57
2022-07-29T16:44:51.620Z,30.37
2022-07-29T16:47:58.469Z,29.66
2022-07-29T16:51:01.996Z,28.57
2022-07-29T16:54:03.452Z,28.45
2022-07-29T16:57:04.972Z,28.43
2022-07-29T17:00:07.302Z,28.99
2022-07-29T17:03:08.826Z,29.81
2022-07-29T17:06:11.735Z,28.90
2022-07-29T17:09:15.117Z,29.07
2022-07-29T17:12:16.692Z,28.86
2022-07-29T17:15:18.924Z,28.25
2022-07-29T17:18:20.329Z,28.17
2022-07-29T17:21:23.770Z,27.90
2022-07-29T17:24:25.302Z,27.51
2022-07-29T17:27:26.900Z,27.41
2022-07-29T17:30:29.553Z,27.89
2022-07-29T17:33:31.203Z,27.80
2022-07-29T17:36:32.888Z,27.72
2022-07-29T17:39:35.533Z,27.49
2022-07-29T17:42:37.002Z,27.32
2022-07-29T17:45:48.759Z,27.55
2022-07-29T17:48:52.630Z,27.34
2022-07-29T17:52:00.762Z,27.33
2022-07-29T17:55:02.704Z,27.36
2022-07-29T17:58:04.227Z,27.14
2022-07-29T18:01:06.300Z,27.26
2022-07-29T18:04:08.944Z,27.12
2022-07-29T18:07:11.492Z,27.04
2022-07-29T18:10:13.007Z,26.87
2022-07-29T18:13:14.559Z,26.42
2022-07-29T18:16:16.116Z,26.57
2022-07-29T18:19:17.594Z,26.66
2022-07-29T18:22:19.596Z,26.57
2022-07-29T18:25:21.259Z,26.55
2022-07-29T18:28:22.772Z,26.41
2022-07-29T18:31:25.272Z,26.34
2022-07-29T18:34:27.511Z,26.26
2022-07-29T18:38:00.915Z,26.40
2022-07-29T18:40:50.804Z,26.54
2022-07-29T18:43:52.261Z,26.62
2022-07-29T18:46:55.529Z,26.53
2022-07-29T18:49:57.074Z,26.59
2022-07-29T18:53:01.085Z,26.61
2022-07-29T18:56:03.412Z,26.59
2022-07-29T18:59:04.985Z,26.73
2022-07-29T19:02:06.992Z,26.78
2022-07-29T19:05:10.030Z,26.67
2022-07-29T19:08:11.695Z,26.35
2022-07-29T19:11:13.265Z,26.75
2022-07-29T19:14:14.842Z,26.85
2022-07-29T19:17:16.468Z,27.21
2022-07-29T19:20:18.066Z,27.38
2022-07-29T19:23:19.725Z,27.16
2022-07-29T19:26:21.326Z,26.73
2022-07-29T19:29:24.768Z,26.13
2022-07-29T19:32:26.836Z,26.23
2022-07-29T19:35:28.537Z,26.45
2022-07-29T19:38:30.030Z,26.00
2022-07-29T19:41:31.579Z,25.98
2022-07-29T19:44:33.017Z,26.20
2022-07-29T19:47:34.775Z,26.47
2022-07-29T19:50:36.867Z,26.34
2022-07-29T19:53:38.440Z,26.41
2022-07-29T19:56:42.260Z,26.35
2022-07-29T19:59:44.247Z,26.51
2022-07-29T20:02:46.470Z,26.27
2022-07-29T20:05:51.022Z,25.68
2022-07-29T20:08:56.719Z,25.67
2022-07-29T20:11:59.738Z,26.10
2022-07-29T20:15:01.310Z,26.22
2022-07-29T20:18:02.813Z,26.05
2022-07-29T20:21:04.974Z,26.23
2022-07-29T20:24:07.120Z,26.23
2022-07-29T20:27:13.557Z,26.05
2022-07-29T20:30:15.488Z,25.77
2022-07-29T20:33:19.222Z,25.68
2022-07-29T20:36:20.810Z,25.45
2022-07-29T20:39:22.268Z,24.85
2022-07-29T20:42:26.384Z,24.85
2022-07-29T20:45:27.860Z,24.81
2022-07-29T20:48:29.373Z,24.71
2022-07-29T20:51:32.250Z,24.84
2022-07-29T20:54:45.790Z,24.71
2022-07-29T20:57:47.237Z,24.64
2022-07-29T21:00:49.081Z,24.88
2022-07-29T21:03:50.802Z,24.84
2022-07-29T21:06:53.359Z,24.92
2022-07-29T21:09:54.987Z,24.45
2022-07-29T21:12:56.468Z,24.59
2022-07-29T21:16:02.008Z,24.64
2022-07-29T21:19:05.817Z,24.88
2022-07-29T21:22:07.439Z,24.52
2022-07-29T21:25:10.689Z,24.41
2022-07-29T21:28:50.179Z,24.41
2022-07-29T21:31:52.094Z,24.76
2022-07-29T21:34:53.642Z,24.47
2022-07-29T21:37:55.166Z,24.42
2022-07-29T21:40:57.310Z,24.20
2022-07-29T21:43:59.618Z,24.39
2022-07-29T21:47:03.430Z,24.35
2022-07-29T21:50:05.677Z,24.27
2022-07-29T21:53:07.179Z,24.08
2022-07-29T21:56:14.867Z,24.25
2022-07-29T21:59:16.750Z,24.63
2022-07-29T22:02:18.509Z,24.55
2022-07-29T22:05:20.458Z,24.70
2022-07-29T22:08:21.864Z,24.63
2022-07-29T22:11:23.322Z,24.56
2022-07-29T22:14:24.782Z,23.97
2022-07-29T22:17:36.038Z,24.41
2022-07-29T22:20:38.595Z,24.53
2022-07-29T22:23:43.526Z,24.68
2022-07-29T22:26:44.982Z,24.01
2022-07-29T22:29:46.462Z,23.72
2022-07-29T22:32:49.552Z,24.09
2022-07-29T22:35:51.061Z,24.42
2022-07-29T22:38:52.465Z,24.41
2022-07-29T22:41:53.999Z,24.39
2022-07-29T22:44:58.459Z,24.22
2022-07-29T22:47:59.950Z,23.67
2022-07-29T22:51:01.392Z,24.16
2022-07-29T22:54:03.997Z,24.51
2022-07-29T22:57:06.168Z,24.15
2022-07-29T23:00:08.595Z,24.29
2022-07-29T23:03:10.109Z,24.28
2022-07-29T23:06:11.615Z,24.45
2022-07-29T23:09:13.061Z,24.57
2022-07-29T23:12:14.615Z,24.27
2022-07-29T23:15:16.081Z,24.68
2022-07-29T23:18:19.637Z,24.42
2022-07-29T23:21:21.108Z,24.15
2022-07-29T23:24:22.614Z,23.72
2022-07-29T23:27:24.152Z,23.41
2022-07-29T23:30:25.839Z,22.81
2022-07-29T23:33:27.840Z,22.75
2022-07-29T23:36:29.526Z,23.06
2022-07-29T23:39:31.023Z,23.10
2022-07-29T23:42:32.578Z,23.06
2022-07-29T23:45:44.609Z,23.16
2022-07-29T23:48:50.121Z,23.14
2022-07-29T23:51:51.680Z,22.75
2022-07-29T23:54:54.553Z,22.58
2022-07-29T23:58:15.985Z,22.55
